Time;durP1;ratioP1;P1;durP2;ratioP2;P2;SDS_P1;SDS_P2;PMS_P1;PMS_P2;Temp;Humidity;BMP_temperature;BMP_pressure;BME280_temperature;BME280_humidity;BME280_pressure;Samples;Min_cycle;Max_cycle;Signal;HPM_P1;HPM_P2
2022/09/14 00:01:35;;;;;;;9.20;4.32;;;16.50;99.90;;;;;;4956460;29;20047;-60
2022/09/14 00:04:02;;;;;;;8.93;3.75;;;16.50;99.90;;;;;;4957219;28;20043;-60
2022/09/14 00:06:29;;;;;;;8.82;3.95;;;16.50;99.90;;;;;;4957452;28;20459;-60
2022/09/14 00:08:56;;;;;;;8.35;4.10;;;16.50;99.90;;;;;;4956766;28;20138;-61
2022/09/14 00:11:23;;;;;;;10.68;4.20;;;16.50;99.90;;;;;;4954540;28;20086;-60
2022/09/14 00:13:50;;;;;;;12.80;4.53;;;16.50;99.90;;;;;;4956493;28;20053;-61
2022/09/14 00:16:17;;;;;;;8.02;3.85;;;16.50;99.90;;;;;;4957189;28;20039;-61
2022/09/14 00:18:44;;;;;;;7.65;4.22;;;16.50;99.90;;;;;;4956744;29;20506;-62
2022/09/14 00:21:10;;;;;;;7.25;4.25;;;16.50;99.90;;;;;;4957168;28;20051;-61
2022/09/14 00:23:37;;;;;;;9.57;4.40;;;16.50;99.90;;;;;;4956508;28;20047;-60
2022/09/14 00:26:04;;;;;;;9.73;4.78;;;16.50;99.90;;;;;;4956587;28;20389;-60
2022/09/14 00:28:30;;;;;;;10.77;4.40;;;16.50;99.90;;;;;;4956737;28;20058;-61
2022/09/14 00:30:57;;;;;;;11.07;4.97;;;16.50;99.90;;;;;;4956893;29;20071;-60
2022/09/14 00:33:24;;;;;;;10.23;4.22;;;16.50;99.90;;;;;;4956415;28;20562;-60
2022/09/14 00:35:50;;;;;;;8.93;3.45;;;16.50;99.90;;;;;;4956363;28;20130;-61
2022/09/14 00:38:17;;;;;;;9.63;3.40;;;16.50;99.90;;;;;;4956315;29;20134;-60
2022/09/14 00:40:44;;;;;;;6.68;3.30;;;16.50;99.90;;;;;;4956597;28;20427;-64
2022/09/14 00:43:10;;;;;;;6.90;3.17;;;16.50;99.90;;;;;;4956597;28;20387;-61
2022/09/14 00:45:37;;;;;;;5.47;2.63;;;16.50;99.90;;;;;;4956749;28;20043;-60
2022/09/14 00:48:04;;;;;;;8.02;3.00;;;16.50;99.90;;;;;;4956076;28;20044;-60
2022/09/14 00:50:31;;;;;;;6.40;2.90;;;16.50;99.90;;;;;;4956307;29;20447;-60
2022/09/14 00:52:58;;;;;;;5.72;2.42;;;16.50;99.90;;;;;;4956117;28;20041;-60
2022/09/14 00:55:25;;;;;;;8.38;2.67;;;16.50;99.90;;;;;;4956374;28;20046;-60
2022/09/14 00:57:51;;;;;;;8.73;2.55;;;16.50;99.90;;;;;;4956087;28;20050;-60
2022/09/14 01:00:18;;;;;;;5.53;2.20;;;16.50;99.90;;;;;;4956624;29;20168;-60
2022/09/14 01:02:45;;;;;;;6.82;2.72;;;16.50;99.90;;;;;;4956624;28;20050;-60
2022/09/14 01:05:12;;;;;;;8.65;2.70;;;16.50;99.90;;;;;;4954624;28;20047;-60
2022/09/14 01:07:38;;;;;;;9.82;2.70;;;16.40;99.90;;;;;;4955729;28;20061;-60
2022/09/14 01:10:05;;;;;;;7.82;3.28;;;16.40;99.90;;;;;;4956259;28;20043;-60
2022/09/14 01:12:32;;;;;;;10.95;2.83;;;16.40;99.90;;;;;;4956143;29;20089;-59
2022/09/14 01:14:58;;;;;;;5.40;2.67;;;16.40;99.90;;;;;;4954988;28;20468;-61
2022/09/14 01:17:25;;;;;;;8.93;3.20;;;16.40;99.90;;;;;;4955627;28;20065;-61
2022/09/14 01:19:52;;;;;;;6.78;3.10;;;16.40;99.90;;;;;;4955694;29;20051;-61
2022/09/14 01:22:19;;;;;;;9.63;3.17;;;16.40;99.90;;;;;;4954251;28;20495;-61
2022/09/14 01:24:46;;;;;;;5.55;2.88;;;16.40;99.90;;;;;;4955468;28;20039;-61
2022/09/14 01:27:13;;;;;;;7.55;3.03;;;16.40;99.90;;;;;;4956068;29;20039;-61
2022/09/14 01:29:40;;;;;;;8.57;3.25;;;16.40;99.90;;;;;;4955733;28;20047;-61
2022/09/14 01:32:06;;;;;;;5.65;3.20;;;16.40;99.90;;;;;;4955809;29;20043;-61
2022/09/14 01:34:33;;;;;;;9.70;3.70;;;16.40;99.90;;;;;;4955620;28;20477;-60
2022/09/14 01:37:00;;;;;;;10.32;4.20;;;16.40;99.90;;;;;;4955790;28;20139;-60
2022/09/14 01:39:27;;;;;;;11.05;4.35;;;16.40;99.90;;;;;;4955402;28;20447;-60
2022/09/14 01:41:53;;;;;;;8.02;4.70;;;16.40;99.90;;;;;;4955825;28;20054;-60
2022/09/14 01:44:20;;;;;;;5.57;4.05;;;16.40;99.90;;;;;;4955125;28;20086;-60
2022/09/14 01:46:47;;;;;;;11.02;4.60;;;16.40;99.90;;;;;;4955464;29;20053;-60
2022/09/14 01:49:13;;;;;;;10.27;5.75;;;16.40;99.90;;;;;;4955451;28;20035;-59
2022/09/14 01:51:40;;;;;;;10.75;5.65;;;16.40;99.90;;;;;;4954445;29;20043;-59
2022/09/14 01:54:07;;;;;;;10.63;5.57;;;16.40;99.90;;;;;;4955846;28;20039;-59
2022/09/14 01:56:34;;;;;;;9.82;5.78;;;16.40;99.90;;;;;;4955186;29;20070;-59
2022/09/14 01:59:01;;;;;;;10.10;5.43;;;16.40;99.90;;;;;;4955367;28;20051;-60
2022/09/14 02:01:27;;;;;;;6.50;5.55;;;16.40;99.90;;;;;;4955188;29;20050;-60
2022/09/14 02:03:57;;;;;;;10.60;6.10;;;16.40;99.90;;;;;;4955464;28;20106;-60
2022/09/14 02:06:23;;;;;;;9.15;5.03;;;16.40;99.90;;;;;;4955344;29;20044;-60
2022/09/14 02:08:50;;;;;;;8.50;5.00;;;16.40;99.90;;;;;;4955081;28;20056;-59
2022/09/14 02:11:17;;;;;;;9.85;4.90;;;16.40;99.90;;;;;;4955080;28;20040;-59
2022/09/14 02:13:43;;;;;;;7.95;4.55;;;16.40;99.90;;;;;;4955026;28;20094;-59
2022/09/14 02:16:10;;;;;;;9.98;4.53;;;16.40;99.90;;;;;;4955220;28;20126;-60
2022/09/14 02:18:37;;;;;;;9.00;4.10;;;16.40;99.90;;;;;;4955309;29;20043;-59
2022/09/14 02:21:04;;;;;;;6.53;4.72;;;16.40;99.90;;;;;;4955474;28;20344;-59
2022/09/14 02:23:30;;;;;;;10.95;4.80;;;16.40;99.90;;;;;;4955406;28;20106;-59
2022/09/14 02:25:57;;;;;;;8.68;4.88;;;16.40;99.90;;;;;;4955479;29;20043;-60
2022/09/14 02:28:24;;;;;;;8.63;5.03;;;16.40;99.90;;;;;;4953738;29;20431;-59
2022/09/14 02:30:50;;;;;;;8.65;6.10;;;16.30;99.90;;;;;;4955257;29;20057;-60
2022/09/14 02:33:17;;;;;;;12.35;7.65;;;16.30;99.90;;;;;;4955548;28;20098;-60
2022/09/14 02:35:44;;;;;;;12.20;8.73;;;16.30;99.90;;;;;;4958585;28;20039;-60
2022/09/14 02:38:10;;;;;;;11.20;8.93;;;16.20;99.90;;;;;;4959067;28;20047;-60
2022/09/14 02:40:37;;;;;;;11.60;9.02;;;16.30;99.90;;;;;;4959095;29;20047;-60
2022/09/14 02:43:04;;;;;;;9.35;8.35;;;16.20;99.90;;;;;;4958620;28;20051;-62
2022/09/14 02:45:30;;;;;;;11.48;8.82;;;16.30;99.90;;;;;;4958296;29;20057;-59
2022/09/14 02:47:57;;;;;;;14.63;8.25;;;16.30;99.90;;;;;;4958374;28;20075;-59
2022/09/14 02:50:24;;;;;;;12.13;8.57;;;16.30;99.90;;;;;;4958736;28;20043;-59
2022/09/14 02:52:51;;;;;;;10.30;8.05;;;16.20;99.90;;;;;;4958791;28;20375;-59
2022/09/14 02:55:18;;;;;;;11.85;7.75;;;16.20;99.90;;;;;;4958842;29;20045;-60
2022/09/14 02:57:44;;;;;;;10.65;7.82;;;16.20;99.90;;;;;;4958268;28;20047;-60
2022/09/14 03:00:11;;;;;;;11.98;7.95;;;16.30;99.90;;;;;;4958350;29;20043;-60
2022/09/14 03:02:38;;;;;;;10.93;8.30;;;16.30;99.90;;;;;;4958445;28;20043;-59
2022/09/14 03:05:04;;;;;;;9.73;7.38;;;16.30;99.90;;;;;;4957907;28;20039;-60
2022/09/14 03:07:31;;;;;;;10.95;7.78;;;16.30;99.90;;;;;;4957871;29;20043;-59
2022/09/14 03:09:58;;;;;;;13.02;7.78;;;16.30;99.90;;;;;;4957949;29;20499;-60
2022/09/14 03:12:25;;;;;;;10.88;7.28;;;16.30;99.90;;;;;;4957991;29;20482;-60
2022/09/14 03:14:51;;;;;;;13.05;7.90;;;16.30;99.90;;;;;;4958077;28;20481;-60
2022/09/14 03:17:18;;;;;;;8.60;6.90;;;16.30;99.90;;;;;;4958149;29;20102;-60
2022/09/14 03:19:45;;;;;;;9.73;6.90;;;16.30;99.90;;;;;;4958007;29;20039;-60
2022/09/14 03:22:11;;;;;;;11.80;7.90;;;16.30;99.90;;;;;;4956488;29;20051;-60
2022/09/14 03:24:38;;;;;;;11.10;7.45;;;16.30;99.90;;;;;;4957831;28;20395;-60
2022/09/14 03:27:05;;;;;;;12.73;8.23;;;16.30;99.90;;;;;;4957592;28;20039;-60
2022/09/14 03:29:31;;;;;;;11.82;8.50;;;16.20;99.90;;;;;;4957843;28;20043;-61
2022/09/14 03:31:58;;;;;;;13.98;8.27;;;16.20;99.90;;;;;;4957870;28;20502;-60
2022/09/14 03:34:25;;;;;;;10.55;8.45;;;16.30;99.90;;;;;;4957750;28;20047;-61
2022/09/14 03:36:52;;;;;;;12.50;8.95;;;16.20;99.90;;;;;;4958086;29;20447;-60
2022/09/14 03:39:18;;;;;;;12.15;9.15;;;16.30;99.90;;;;;;4957654;28;20463;-60
2022/09/14 03:41:45;;;;;;;11.00;9.20;;;16.30;99.90;;;;;;4957948;28;20051;-60
2022/09/14 03:44:12;;;;;;;16.13;10.48;;;16.20;99.90;;;;;;4957249;28;20047;-60
2022/09/14 03:46:38;;;;;;;14.35;9.93;;;16.20;99.90;;;;;;4957604;28;20438;-60
2022/09/14 03:49:05;;;;;;;13.43;9.15;;;16.10;99.90;;;;;;4957924;28;20061;-60
2022/09/14 03:51:32;;;;;;;14.80;10.25;;;16.10;99.90;;;;;;4957823;28;20047;-61
2022/09/14 03:53:59;;;;;;;12.25;9.60;;;16.10;99.90;;;;;;4957223;28;20049;-60
2022/09/14 03:56:26;;;;;;;15.93;9.40;;;16.10;99.90;;;;;;4957088;29;20562;-60
2022/09/14 03:58:52;;;;;;;12.27;9.32;;;16.10;99.90;;;;;;4957138;29;20126;-60
2022/09/14 04:01:19;;;;;;;15.43;10.32;;;16.10;99.90;;;;;;4957231;28;20044;-61
2022/09/14 04:03:46;;;;;;;17.75;10.30;;;16.00;99.90;;;;;;4957574;28;20043;-60
2022/09/14 04:06:14;;;;;;;16.33;10.65;;;16.00;99.90;;;;;;4956830;28;20487;-60
2022/09/14 04:08:41;;;;;;;14.90;10.20;;;16.00;99.90;;;;;;4956785;28;20550;-60
2022/09/14 04:11:08;;;;;;;13.95;10.98;;;16.00;99.90;;;;;;4957164;28;20071;-60
2022/09/14 04:13:34;;;;;;;14.60;9.82;;;16.00;99.90;;;;;;4956700;28;20517;-60
2022/09/14 04:16:01;;;;;;;13.30;9.45;;;16.00;99.90;;;;;;4956214;29;20098;-60
2022/09/14 04:18:28;;;;;;;13.93;9.73;;;15.90;99.90;;;;;;4956683;28;20070;-60
2022/09/14 04:20:55;;;;;;;16.30;10.25;;;16.00;99.90;;;;;;4957191;29;20133;-60
2022/09/14 04:23:21;;;;;;;13.38;10.50;;;16.00;99.90;;;;;;4956580;28;20041;-60
2022/09/14 04:25:48;;;;;;;13.57;10.25;;;16.00;99.90;;;;;;4956607;29;20073;-60
2022/09/14 04:28:15;;;;;;;14.52;10.68;;;16.00;99.90;;;;;;4956437;29;20073;-62
2022/09/14 04:30:46;;;;;;;14.63;10.52;;;16.00;99.90;;;;;;4956430;29;20454;-60
2022/09/14 04:33:13;;;;;;;13.73;10.90;;;16.10;99.90;;;;;;4956350;28;20115;-60
2022/09/14 04:35:39;;;;;;;13.38;10.48;;;16.00;99.90;;;;;;4956359;28;20047;-60
2022/09/14 04:38:06;;;;;;;14.18;10.90;;;16.00;99.90;;;;;;4955340;29;20035;-60
2022/09/14 04:40:33;;;;;;;15.43;10.80;;;16.10;99.90;;;;;;4956533;28;20074;-61
2022/09/14 04:42:59;;;;;;;17.95;11.77;;;16.10;99.90;;;;;;4956475;28;20054;-60
2022/09/14 04:45:26;;;;;;;14.18;11.90;;;16.00;99.90;;;;;;4956139;29;20039;-60
2022/09/14 04:47:53;;;;;;;17.60;12.05;;;16.10;99.90;;;;;;4955973;29;20039;-60
2022/09/14 04:50:20;;;;;;;16.75;12.25;;;16.10;99.90;;;;;;4956367;28;20043;-60
2022/09/14 04:52:46;;;;;;;18.30;13.05;;;16.00;99.90;;;;;;4955147;28;20404;-60
2022/09/14 04:55:13;;;;;;;18.25;12.85;;;16.00;99.90;;;;;;4956037;28;20066;-60
2022/09/14 04:57:40;;;;;;;18.88;13.88;;;16.00;99.90;;;;;;4954489;28;20046;-60
2022/09/14 05:00:06;;;;;;;18.15;12.68;;;16.00;99.90;;;;;;4956533;28;20130;-60
2022/09/14 05:02:33;;;;;;;19.65;13.30;;;16.00;99.90;;;;;;4955396;29;20052;-60
2022/09/14 05:05:00;;;;;;;19.73;12.63;;;16.00;99.90;;;;;;4955772;28;20130;-60
2022/09/14 05:07:26;;;;;;;19.35;12.27;;;16.00;99.90;;;;;;4955801;28;20047;-60
2022/09/14 05:09:53;;;;;;;20.42;11.95;;;16.00;99.90;;;;;;4956378;28;20043;-60
2022/09/14 05:12:20;;;;;;;18.02;11.90;;;16.00;99.90;;;;;;4956196;29;20039;-60
2022/09/14 05:14:47;;;;;;;19.08;11.30;;;15.90;99.90;;;;;;4955673;28;20070;-60
2022/09/14 05:17:13;;;;;;;16.88;11.63;;;15.90;99.90;;;;;;4955702;28;20046;-60
2022/09/14 05:19:40;;;;;;;16.52;10.52;;;15.90;99.90;;;;;;4956180;28;20047;-60
2022/09/14 05:22:07;;;;;;;16.00;10.70;;;15.90;99.90;;;;;;4955990;28;20044;-60
2022/09/14 05:24:33;;;;;;;15.65;10.13;;;15.90;99.90;;;;;;4955929;28;20490;-60
2022/09/14 05:27:00;;;;;;;18.10;10.35;;;15.80;99.90;;;;;;4956006;28;20031;-60
2022/09/14 05:29:28;;;;;;;19.25;10.43;;;15.80;99.90;;;;;;4956030;28;20050;-60
2022/09/14 05:31:55;;;;;;;18.38;10.32;;;15.70;99.90;;;;;;4954304;28;20430;-60
2022/09/14 05:34:22;;;;;;;20.02;9.60;;;15.70;99.90;;;;;;4955652;28;20114;-61
2022/09/14 05:36:48;;;;;;;17.02;8.65;;;15.70;99.90;;;;;;4955637;28;20045;-60
2022/09/14 05:39:15;;;;;;;15.43;9.35;;;15.70;99.90;;;;;;4956164;28;20067;-60
2022/09/14 05:41:49;;;;;;;17.58;8.90;;;15.70;99.90;;;;;;4955722;28;20578;-60
2022/09/14 05:44:15;;;;;;;18.48;9.15;;;15.70;99.90;;;;;;4955415;28;20039;-60
2022/09/14 05:46:42;;;;;;;14.75;8.80;;;15.80;99.90;;;;;;4955490;28;20051;-61
2022/09/14 05:49:09;;;;;;;14.15;8.65;;;15.80;99.90;;;;;;4955251;29;20045;-60
2022/09/14 05:51:35;;;;;;;13.45;8.07;;;15.80;99.90;;;;;;4955223;29;20388;-60
2022/09/14 05:54:08;;;;;;;13.00;8.13;;;15.80;99.90;;;;;;4955542;28;20043;-60
2022/09/14 05:56:34;;;;;;;14.02;7.28;;;15.80;99.90;;;;;;4955689;29;20039;-60
2022/09/14 05:59:01;;;;;;;11.52;7.45;;;15.80;99.90;;;;;;4955058;29;20043;-60
2022/09/14 06:01:28;;;;;;;17.20;7.38;;;15.80;99.90;;;;;;4955348;29;20143;-61
2022/09/14 06:03:55;;;;;;;9.88;6.95;;;15.80;99.90;;;;;;4955042;28;20043;-60
2022/09/14 06:06:21;;;;;;;13.63;7.70;;;15.80;99.90;;;;;;4955429;28;20047;-60
2022/09/14 06:08:51;;;;;;;14.13;7.32;;;15.80;99.90;;;;;;4956189;28;20051;-60
2022/09/14 06:11:17;;;;;;;10.45;6.63;;;15.80;99.90;;;;;;4959310;28;20356;-60
2022/09/14 06:13:45;;;;;;;13.02;6.90;;;15.80;99.90;;;;;;4959378;28;20070;-59
2022/09/14 06:16:12;;;;;;;11.77;6.57;;;15.80;99.90;;;;;;4959317;28;20051;-59
2022/09/14 06:18:39;;;;;;;12.95;6.20;;;15.80;99.90;;;;;;4959381;29;20066;-59
2022/09/14 06:21:05;;;;;;;9.20;5.30;;;15.80;99.90;;;;;;4959260;28;20090;-61
2022/09/14 06:23:32;;;;;;;9.05;5.60;;;15.80;99.90;;;;;;4958704;28;20039;-60
2022/09/14 06:25:59;;;;;;;8.50;5.35;;;15.70;99.90;;;;;;4958832;28;20043;-61
2022/09/14 06:28:25;;;;;;;10.30;5.35;;;15.70;99.90;;;;;;4958670;28;20435;-60
2022/09/14 06:30:52;;;;;;;15.27;5.38;;;15.80;99.90;;;;;;4959123;28;20074;-60
2022/09/14 06:33:19;;;;;;;10.30;4.78;;;15.80;99.90;;;;;;4959097;28;20039;-60
2022/09/14 06:35:47;;;;;;;9.23;5.00;;;15.80;99.90;;;;;;4958838;29;20039;-60
2022/09/14 06:38:14;;;;;;;9.75;4.28;;;15.80;99.90;;;;;;4959063;28;20047;-59
2022/09/14 06:40:41;;;;;;;7.05;4.32;;;15.80;99.90;;;;;;4958736;28;20156;-59
2022/09/14 06:43:07;;;;;;;9.63;4.82;;;15.80;99.90;;;;;;4958468;28;20063;-60
2022/09/14 06:45:35;;;;;;;12.73;4.47;;;15.80;99.90;;;;;;4958455;28;20079;-60
2022/09/14 06:48:02;;;;;;;8.02;4.38;;;15.80;99.90;;;;;;4958397;29;20069;-60
2022/09/14 06:50:28;;;;;;;10.90;4.32;;;15.80;99.90;;;;;;4958586;28;20094;-61
2022/09/14 06:52:55;;;;;;;12.82;4.18;;;15.80;99.90;;;;;;4958926;28;20565;-60
2022/09/14 06:55:22;;;;;;;8.45;3.70;;;15.80;99.90;;;;;;4958241;28;20035;-60
2022/09/14 06:57:48;;;;;;;9.25;3.75;;;15.70;99.90;;;;;;4958242;29;20039;-59
2022/09/14 07:00:15;;;;;;;7.63;3.50;;;15.70;99.90;;;;;;4958514;28;20082;-59
2022/09/14 07:02:42;;;;;;;10.60;4.03;;;15.80;99.90;;;;;;4958481;28;20447;-59
2022/09/14 07:05:14;;;;;;;10.80;3.45;;;15.80;99.90;;;;;;4958644;28;20050;-60
2022/09/14 07:07:41;;;;;;;7.32;3.67;;;15.80;99.90;;;;;;4957522;29;20050;-61
2022/09/14 07:10:08;;;;;;;8.13;3.33;;;15.80;99.90;;;;;;4958556;28;20051;-61
2022/09/14 07:12:35;;;;;;;8.02;3.03;;;15.80;99.90;;;;;;4958415;28;20479;-59
2022/09/14 07:15:03;;;;;;;8.60;3.67;;;15.90;99.90;;;;;;4958047;28;20045;-60
2022/09/14 07:17:30;;;;;;;10.20;3.15;;;15.90;99.90;;;;;;4958019;28;20051;-60
2022/09/14 07:19:57;;;;;;;10.18;3.88;;;16.00;99.90;;;;;;4957890;28;20079;-61
2022/09/14 07:22:23;;;;;;;8.00;3.22;;;16.00;99.90;;;;;;4957684;28;20066;-60
2022/09/14 07:24:50;;;;;;;6.95;3.35;;;16.00;99.90;;;;;;4958016;28;20051;-60
2022/09/14 07:27:17;;;;;;;5.88;2.83;;;16.00;99.90;;;;;;4958287;28;20042;-60
2022/09/14 07:29:44;;;;;;;10.02;3.40;;;16.10;99.90;;;;;;4956587;28;20039;-60
2022/09/14 07:32:11;;;;;;;8.15;2.97;;;16.10;99.90;;;;;;4958046;28;20046;-60
2022/09/14 07:34:37;;;;;;;11.38;3.80;;;16.10;99.90;;;;;;4957067;28;20039;-60
2022/09/14 07:37:04;;;;;;;13.10;3.25;;;16.20;99.90;;;;;;4956529;29;20051;-60
2022/09/14 07:39:31;;;;;;;11.10;3.17;;;16.20;99.90;;;;;;4957707;28;20122;-60
2022/09/14 07:41:58;;;;;;;8.23;2.85;;;16.10;99.90;;;;;;4957677;28;20054;-60
2022/09/14 07:44:24;;;;;;;11.43;3.22;;;16.10;99.90;;;;;;4957767;28;20043;-60
2022/09/14 07:46:51;;;;;;;6.60;3.35;;;16.20;99.90;;;;;;4956286;29;20414;-60
2022/09/14 07:49:18;;;;;;;12.27;3.40;;;16.20;99.90;;;;;;4960377;28;20042;-61
2022/09/14 07:51:45;;;;;;;10.52;3.83;;;16.20;99.90;;;;;;4938511;29;20042;-60
2022/09/14 07:54:11;;;;;;;6.45;3.05;;;16.30;99.90;;;;;;4938080;29;20035;-60
2022/09/14 07:56:38;;;;;;;8.57;2.97;;;16.20;99.90;;;;;;4934824;28;20095;-59
2022/09/14 07:59:05;;;;;;;8.48;3.13;;;16.20;99.90;;;;;;4940186;28;20051;-61
2022/09/14 08:01:52;;;;;;;9.40;3.20;;;16.20;99.90;;;;;;4950500;28;20043;-61
2022/09/14 08:04:20;;;;;;;9.68;2.85;;;16.10;99.90;;;;;;4957792;28;20451;-60
2022/09/14 08:06:46;;;;;;;13.48;3.05;;;16.10;99.90;;;;;;4960609;28;20053;-60
2022/09/14 08:09:13;;;;;;;8.43;2.90;;;16.20;99.90;;;;;;4955617;29;20055;-61
2022/09/14 08:11:40;;;;;;;11.68;2.90;;;16.20;99.90;;;;;;4956118;29;20083;-60
2022/09/14 08:14:08;;;;;;;8.35;2.90;;;16.30;99.90;;;;;;4952545;28;20047;-61
2022/09/14 08:16:37;;;;;;;12.32;3.35;;;16.30;99.90;;;;;;4954600;29;20043;-61
2022/09/14 08:19:04;;;;;;;8.57;2.97;;;16.50;99.90;;;;;;4953550;28;20047;-60
2022/09/14 08:21:31;;;;;;;8.48;3.08;;;16.50;99.90;;;;;;4956382;29;20062;-60
2022/09/14 08:23:57;;;;;;;9.48;2.80;;;16.50;99.90;;;;;;4956043;28;20435;-60
2022/09/14 08:26:24;;;;;;;7.53;3.17;;;16.50;99.90;;;;;;4956241;29;20058;-60
2022/09/14 08:28:50;;;;;;;10.20;2.90;;;16.60;99.90;;;;;;4954839;29;20099;-60
2022/09/14 08:31:17;;;;;;;11.90;3.00;;;16.60;99.90;;;;;;4953868;28;20110;-61
2022/09/14 08:33:44;;;;;;;9.77;2.63;;;16.70;99.90;;;;;;4953262;29;20122;-60
2022/09/14 08:36:11;;;;;;;8.32;3.20;;;16.70;99.90;;;;;;4954839;28;20043;-59
2022/09/14 08:38:37;;;;;;;7.30;2.80;;;16.80;99.90;;;;;;4953962;29;20086;-60
2022/09/14 08:41:04;;;;;;;9.00;2.70;;;16.80;99.90;;;;;;4955511;28;20055;-59
2022/09/14 08:43:31;;;;;;;7.75;2.40;;;16.90;99.90;;;;;;4952191;28;20046;-59
2022/09/14 08:45:58;;;;;;;9.10;3.08;;;16.90;99.90;;;;;;4956505;29;20047;-60
2022/09/14 08:48:24;;;;;;;6.85;2.50;;;17.00;99.90;;;;;;4955292;29;20043;-60
2022/09/14 08:50:54;;;;;;;6.97;2.40;;;17.10;99.90;;;;;;4954731;28;20043;-60
2022/09/14 08:53:21;;;;;;;7.45;2.63;;;17.10;99.90;;;;;;4953007;29;20495;-60
2022/09/14 08:55:48;;;;;;;11.40;2.60;;;17.20;99.90;;;;;;4952473;29;20524;-60
2022/09/14 08:58:15;;;;;;;6.88;2.70;;;17.20;99.90;;;;;;4955671;29;20054;-60
2022/09/14 09:00:41;;;;;;;9.80;2.53;;;17.20;99.90;;;;;;4952931;28;20051;-59
2022/09/14 09:03:08;;;;;;;9.25;2.78;;;17.30;99.90;;;;;;4951273;29;20502;-60
2022/09/14 09:05:35;;;;;;;9.55;2.28;;;17.30;99.90;;;;;;4954213;28;20288;-60
2022/09/14 09:08:02;;;;;;;8.68;2.47;;;17.30;99.90;;;;;;4952676;28;20521;-59
2022/09/14 09:10:29;;;;;;;7.38;2.10;;;17.20;99.90;;;;;;4954511;29;20134;-59
2022/09/14 09:12:56;;;;;;;9.30;2.33;;;17.30;99.90;;;;;;4955133;28;20094;-58
2022/09/14 09:15:22;;;;;;;9.63;2.80;;;17.30;99.90;;;;;;4955101;28;20055;-59
2022/09/14 09:17:49;;;;;;;8.77;2.70;;;17.40;99.90;;;;;;4952999;29;20047;-59
2022/09/14 09:20:16;;;;;;;6.50;2.22;;;17.40;99.90;;;;;;4954332;28;20043;-59
2022/09/14 09:22:43;;;;;;;10.65;2.40;;;17.50;99.90;;;;;;4951518;29;20043;-59
2022/09/14 09:25:09;;;;;;;8.98;2.40;;;17.50;99.90;;;;;;4951734;28;20070;-60
2022/09/14 09:27:36;;;;;;;8.95;2.10;;;17.60;99.90;;;;;;4952593;28;20047;-60
2022/09/14 09:30:03;;;;;;;6.47;1.67;;;17.60;99.90;;;;;;4950799;28;20125;-60
2022/09/14 09:32:29;;;;;;;8.32;2.10;;;17.70;99.90;;;;;;4950950;28;20090;-60
2022/09/14 09:35:00;;;;;;;12.85;2.15;;;17.60;99.90;;;;;;4947657;28;20043;-60
2022/09/14 09:37:38;;;;;;;7.10;1.75;;;17.70;99.90;;;;;;4951987;28;20138;-60
2022/09/14 09:40:05;;;;;;;10.05;2.20;;;17.70;99.90;;;;;;4953367;29;20047;-60
2022/09/14 09:42:32;;;;;;;9.70;2.58;;;17.70;99.90;;;;;;4949437;29;20054;-60
2022/09/14 09:44:59;;;;;;;9.00;2.45;;;17.80;99.90;;;;;;4949545;28;20056;-60
2022/09/14 09:47:29;;;;;;;7.13;1.92;;;17.80;99.90;;;;;;4954598;28;20175;-60
2022/09/14 09:49:56;;;;;;;9.68;2.00;;;17.80;99.90;;;;;;4953703;28;20114;-60
2022/09/14 09:52:23;;;;;;;8.25;2.30;;;17.80;99.90;;;;;;4953285;28;20487;-60
2022/09/14 09:54:49;;;;;;;10.32;2.78;;;17.80;99.90;;;;;;4951897;29;20479;-60
2022/09/14 09:57:16;;;;;;;9.52;2.40;;;17.80;99.90;;;;;;4953270;29;20099;-60
2022/09/14 09:59:45;;;;;;;8.35;2.10;;;17.80;99.90;;;;;;4952197;29;20054;-61
2022/09/14 10:02:12;;;;;;;7.35;2.28;;;17.80;99.90;;;;;;4948709;28;20050;-61
2022/09/14 10:04:38;;;;;;;8.55;2.15;;;17.80;99.90;;;;;;4953083;28;20047;-60
2022/09/14 10:07:05;;;;;;;9.90;2.50;;;17.90;99.90;;;;;;4953990;28;20102;-60
2022/09/14 10:09:32;;;;;;;11.02;2.10;;;17.90;99.90;;;;;;4954937;28;20051;-60
2022/09/14 10:11:59;;;;;;;8.65;2.22;;;17.90;99.90;;;;;;4949100;29;20067;-59
2022/09/14 10:14:25;;;;;;;7.03;2.00;;;17.90;99.90;;;;;;4948699;29;20126;-60
2022/09/14 10:16:52;;;;;;;9.00;2.40;;;17.80;99.90;;;;;;4948829;29;20043;-59
2022/09/14 10:19:19;;;;;;;8.85;2.13;;;17.80;99.90;;;;;;4954836;29;20394;-59
2022/09/14 10:21:46;;;;;;;8.30;2.45;;;17.90;99.90;;;;;;4954822;29;20039;-60
2022/09/14 10:24:12;;;;;;;8.63;2.10;;;17.90;99.90;;;;;;4954700;28;20039;-60
2022/09/14 10:26:39;;;;;;;9.00;2.30;;;18.00;99.90;;;;;;4954900;28;20047;-59
2022/09/14 10:29:06;;;;;;;7.65;2.28;;;17.90;99.90;;;;;;4953880;28;20398;-60
2022/09/14 10:31:32;;;;;;;6.93;2.20;;;18.00;99.90;;;;;;4954676;28;20043;-60
2022/09/14 10:33:59;;;;;;;9.88;2.45;;;17.90;99.90;;;;;;4953790;28;20039;-56
2022/09/14 10:36:26;;;;;;;8.35;2.10;;;17.90;99.90;;;;;;4952052;28;20046;-56
2022/09/14 10:38:57;;;;;;;7.10;1.88;;;17.80;99.90;;;;;;4954259;29;20043;-57
2022/09/14 10:41:25;;;;;;;8.77;2.40;;;17.80;99.90;;;;;;4952007;29;20125;-58
2022/09/14 10:43:51;;;;;;;5.90;2.03;;;17.70;99.90;;;;;;4948848;29;20495;-56
2022/09/14 10:46:18;;;;;;;9.18;2.00;;;17.70;99.90;;;;;;4949446;29;20079;-57
2022/09/14 10:48:45;;;;;;;12.13;2.28;;;17.70;99.90;;;;;;4950248;29;20073;-58
2022/09/14 10:51:12;;;;;;;9.05;2.28;;;17.80;99.90;;;;;;4952896;28;20079;-59
2022/09/14 10:53:40;;;;;;;13.75;2.38;;;17.80;99.90;;;;;;4953713;28;20066;-58
2022/09/14 10:56:08;;;;;;;6.20;2.00;;;17.80;99.90;;;;;;4956643;28;20051;-57
2022/09/14 10:58:35;;;;;;;8.50;2.30;;;17.80;99.90;;;;;;4956185;29;20139;-59
2022/09/14 11:01:02;;;;;;;9.40;2.35;;;17.80;99.90;;;;;;4956198;28;20455;-59
2022/09/14 11:03:28;;;;;;;10.32;2.70;;;17.70;99.90;;;;;;4957596;28;20051;-59
2022/09/14 11:05:55;;;;;;;11.77;2.58;;;17.80;99.90;;;;;;4954491;28;20035;-59
2022/09/14 11:08:22;;;;;;;7.95;2.47;;;17.80;99.90;;;;;;4957035;29;20047;-57
2022/09/14 11:10:49;;;;;;;10.45;2.85;;;17.80;99.90;;;;;;4956218;29;20054;-57
2022/09/14 11:13:16;;;;;;;7.22;2.20;;;17.80;99.90;;;;;;4952665;28;20031;-57
2022/09/14 11:15:42;;;;;;;8.35;2.65;;;17.90;99.90;;;;;;4956984;29;20463;-59
2022/09/14 11:18:09;;;;;;;8.10;2.58;;;18.00;99.90;;;;;;4953288;29;20046;-56
2022/09/14 11:20:36;;;;;;;8.20;2.95;;;18.10;99.90;;;;;;4957609;28;20383;-58
2022/09/14 11:23:08;;;;;;;10.77;2.97;;;18.20;99.90;;;;;;4957224;28;20051;-59
2022/09/14 11:25:34;;;;;;;11.18;2.60;;;18.30;99.90;;;;;;4957699;28;20487;-58
2022/09/14 11:28:01;;;;;;;10.25;3.17;;;18.40;99.90;;;;;;4955889;29;20071;-57
2022/09/14 11:30:28;;;;;;;11.23;3.00;;;18.40;99.90;;;;;;4953977;28;20041;-56
2022/09/14 11:32:54;;;;;;;10.82;2.92;;;18.50;99.90;;;;;;4952889;29;20044;-54
2022/09/14 11:35:21;;;;;;;9.68;2.85;;;18.70;99.90;;;;;;4956926;29;20041;-57
2022/09/14 11:37:48;;;;;;;7.88;2.70;;;18.90;99.90;;;;;;4955667;29;20051;-58
2022/09/14 11:40:14;;;;;;;13.82;3.15;;;19.00;99.90;;;;;;4957641;28;20138;-58
2022/09/14 11:42:41;;;;;;;8.32;2.95;;;19.10;99.90;;;;;;4956912;29;20125;-60
2022/09/14 11:45:08;;;;;;;12.23;2.65;;;19.30;99.90;;;;;;4956254;28;20035;-54
2022/09/14 11:47:35;;;;;;;8.07;2.45;;;19.50;99.90;;;;;;4956538;29;20094;-56
2022/09/14 11:50:02;;;;;;;8.45;3.05;;;19.60;99.90;;;;;;4957171;28;20114;-57
2022/09/14 11:52:29;;;;;;;9.93;2.70;;;19.60;99.90;;;;;;4956996;29;20035;-58
2022/09/14 11:54:55;;;;;;;7.63;1.95;;;19.50;99.90;;;;;;4952468;28;20077;-57
2022/09/14 11:57:22;;;;;;;6.25;1.90;;;19.40;99.90;;;;;;4953100;28;20039;-58
2022/09/14 11:59:49;;;;;;;7.20;1.95;;;19.30;99.90;;;;;;4955712;28;20054;-59
2022/09/14 12:02:16;;;;;;;8.77;1.92;;;19.30;99.90;;;;;;4955740;28;20046;-59
2022/09/14 12:04:43;;;;;;;6.75;2.15;;;19.50;99.90;;;;;;4956260;28;20051;-60
2022/09/14 12:07:10;;;;;;;7.65;1.95;;;19.70;99.90;;;;;;4955373;28;20471;-55
2022/09/14 12:09:37;;;;;;;12.07;2.38;;;19.90;99.90;;;;;;4951868;28;20337;-59
2022/09/14 12:12:07;;;;;;;8.13;1.90;;;20.10;99.90;;;;;;4954368;29;20047;-57
2022/09/14 12:14:34;;;;;;;7.28;2.08;;;20.10;99.90;;;;;;4956467;28;20450;-58
2022/09/14 12:17:01;;;;;;;6.80;1.88;;;20.20;99.90;;;;;;4955634;28;20501;-57
2022/09/14 12:19:48;;;;;;;6.28;1.90;;;20.20;99.90;;;;;;4947690;28;20131;-57
2022/09/14 12:22:14;;;;;;;6.13;1.50;;;20.20;99.90;;;;;;4954014;28;20049;-56
2022/09/14 12:24:41;;;;;;;5.65;1.75;;;20.20;99.90;;;;;;4953266;28;20073;-58
2022/09/14 12:27:08;;;;;;;6.03;1.55;;;20.20;99.90;;;;;;4955404;28;20047;-57
2022/09/14 12:29:34;;;;;;;4.97;1.48;;;20.30;99.90;;;;;;4953161;28;20051;-58
2022/09/14 12:32:01;;;;;;;6.30;1.60;;;20.30;99.90;;;;;;4948200;29;20418;-57
2022/09/14 12:34:30;;;;;;;5.28;1.58;;;20.30;99.90;;;;;;4954793;28;20087;-56
2022/09/14 12:36:58;;;;;;;7.22;1.65;;;20.30;99.90;;;;;;4953920;28;20499;-57
2022/09/14 12:39:24;;;;;;;5.63;1.40;;;20.40;99.90;;;;;;4951806;29;21131;-54